Thunder radar more information blitzortung!


Radar de pluja more information rain snow radar


Visita la nostra xarxa de llocs de meteo:

Template documentation
and downloads

And another site



Extreme low temperature From: 13-12-2017 09:00 Until: 09:59 warning for: Extreme low temperature Level: Yellow info button

Pagina Historial Weather Underground text

Diari Resum May 15, 2017 Unitats:  Tant    Imperial   Mètric
« Previous Dia
SegĂźent Dia »
Diari Setmana Mensual Anual Personalitzada
  Maxima: Minima: Media:
Temperatura: 83.3 °F /  28.5 °C 57.4 °F /  14.1 °C 71.8 °F /  22.1 °C
Punt de rosada: 55.9 °F /  13.3 °C 48.2 °F /  9.0 °C 51.3 °F /  10.7 °C
Humitat: 74 % 35 % 50 %
Wind Speed: 13 mph /  20.9 km/h - 3.6 mph /  5.8 km/h
RĂ fegues de vent: 13 mph /  20.9 km/h - -
Vent:- - SSE
Pression baro: 30.4 in /  1029.0 hPa 30.3 in /  1024.9 hPa -
Precipitacions: 0 in /  0.0 mm    
Historical Graphs
 
 
Dades de taula per May 15, 2017
Temps Temperatura Punt de rosada Pression baro Vent Wind Speed RĂ fegues de vent Humitat Rainfall Rate (Hourly)
00:04 62.8 °F /  17.1 °C 50 °F /  10.0 °C 30.3 in /  1026.0 hPa Calm     63 % 0 in /  0.0 mm
00:05 57.6 °F /  14.2 °C 48.9 °F /  9.4 °C 30.3 in /  1026.0 hPa WSW 1 mph /  1.6 km/h 2 mph /  3.2 km/h 73 % 0 in /  0.0 mm
00:15 57.4 °F /  14.1 °C 49.3 °F /  9.6 °C 30.3 in /  1026.0 hPa Calm     74 % 0 in /  0.0 mm
00:25 57.6 °F /  14.2 °C 48.9 °F /  9.4 °C 30.3 in /  1027.0 hPa Calm   1 mph /  1.6 km/h 73 % 0 in /  0.0 mm
00:35 57.6 °F /  14.2 °C 49.3 °F /  9.6 °C 30.3 in /  1027.0 hPa Calm     74 % 0 in /  0.0 mm
00:45 57.4 °F /  14.1 °C 49.3 °F /  9.6 °C 30.3 in /  1027.0 hPa Calm     74 % 0 in /  0.0 mm
00:55 57.7 °F /  14.3 °C 49.5 °F /  9.7 °C 30.3 in /  1026.0 hPa Calm     74 % 0 in /  0.0 mm
01:05 57.7 °F /  14.3 °C 49.5 °F /  9.7 °C 30.3 in /  1026.0 hPa Calm     74 % 0 in /  0.0 mm
01:15 57.4 °F /  14.1 °C 49.3 °F /  9.6 °C 30.3 in /  1027.0 hPa WSW 1 mph /  1.6 km/h 2 mph /  3.2 km/h 74 % 0 in /  0.0 mm
01:25 57.4 °F /  14.1 °C 49.3 °F /  9.6 °C 30.3 in /  1027.0 hPa Calm   1 mph /  1.6 km/h 74 % 0 in /  0.0 mm
01:35 57.6 °F /  14.2 °C 49.3 °F /  9.6 °C 30.3 in /  1027.0 hPa Calm     74 % 0 in /  0.0 mm
01:45 57.7 °F /  14.3 °C 49.5 °F /  9.7 °C 30.3 in /  1027.0 hPa Calm     74 % 0 in /  0.0 mm
01:55 57.4 °F /  14.1 °C 49.3 °F /  9.6 °C 30.3 in /  1027.0 hPa North 2 mph /  3.2 km/h 2 mph /  3.2 km/h 74 % 0 in /  0.0 mm
02:05 57.7 °F /  14.3 °C 49.5 °F /  9.7 °C 30.3 in /  1027.0 hPa Calm   2 mph /  3.2 km/h 74 % 0 in /  0.0 mm
02:15 57.7 °F /  14.3 °C 49.1 °F /  9.5 °C 30.3 in /  1027.0 hPa East 2 mph /  3.2 km/h 2 mph /  3.2 km/h 73 % 0 in /  0.0 mm
02:25 57.4 °F /  14.1 °C 48.7 °F /  9.3 °C 30.3 in /  1027.0 hPa SW 2 mph /  3.2 km/h 3 mph /  4.8 km/h 73 % 0 in /  0.0 mm
02:35 57.9 °F /  14.4 °C 49.3 °F /  9.6 °C 30.3 in /  1027.0 hPa SW 2 mph /  3.2 km/h 3 mph /  4.8 km/h 73 % 0 in /  0.0 mm
02:45 58.5 °F /  14.7 °C 50.2 °F /  10.1 °C 30.4 in /  1028.0 hPa SW 1 mph /  1.6 km/h 2 mph /  3.2 km/h 74 % 0 in /  0.0 mm
02:55 59.4 °F /  15.2 °C 51.1 °F /  10.6 °C 30.4 in /  1028.0 hPa Calm   2 mph /  3.2 km/h 74 % 0 in /  0.0 mm
03:05 61 °F /  16.1 °C 52.3 °F /  11.3 °C 30.4 in /  1028.0 hPa Calm   2 mph /  3.2 km/h 73 % 0 in /  0.0 mm
03:15 61.5 °F /  16.4 °C 52 °F /  11.1 °C 30.4 in /  1028.0 hPa SSW 2 mph /  3.2 km/h 3 mph /  4.8 km/h 71 % 0 in /  0.0 mm
03:25 61.2 °F /  16.2 °C 51.3 °F /  10.7 °C 30.4 in /  1028.0 hPa SW 1 mph /  1.6 km/h 2 mph /  3.2 km/h 70 % 0 in /  0.0 mm
03:35 61.3 °F /  16.3 °C 51.4 °F /  10.8 °C 30.4 in /  1028.0 hPa SW 1 mph /  1.6 km/h 2 mph /  3.2 km/h 70 % 0 in /  0.0 mm
03:45 63.7 °F /  17.6 °C 53.2 °F /  11.8 °C 30.4 in /  1028.0 hPa SSW 1 mph /  1.6 km/h 1 mph /  1.6 km/h 69 % 0 in /  0.0 mm
03:55 64.6 °F /  18.1 °C 53.8 °F /  12.1 °C 30.4 in /  1028.0 hPa South 1 mph /  1.6 km/h 3 mph /  4.8 km/h 68 % 0 in /  0.0 mm
04:05 66.2 °F /  19.0 °C 54.1 °F /  12.3 °C 30.4 in /  1028.0 hPa ESE 1 mph /  1.6 km/h 3 mph /  4.8 km/h 65 % 0 in /  0.0 mm
04:15 66 °F /  18.9 °C 54 °F /  12.2 °C 30.4 in /  1028.0 hPa ENE 2 mph /  3.2 km/h 4 mph /  6.4 km/h 65 % 0 in /  0.0 mm
04:25 66.9 °F /  19.4 °C 54 °F /  12.2 °C 30.4 in /  1028.0 hPa NE 3 mph /  4.8 km/h 3 mph /  4.8 km/h 63 % 0 in /  0.0 mm
04:35 67.3 °F /  19.6 °C 54.3 °F /  12.4 °C 30.4 in /  1028.0 hPa NE 2 mph /  3.2 km/h 3 mph /  4.8 km/h 63 % 0 in /  0.0 mm
04:45 68 °F /  20.0 °C 54 °F /  12.2 °C 30.4 in /  1028.0 hPa NE 1 mph /  1.6 km/h 4 mph /  6.4 km/h 61 % 0 in /  0.0 mm
04:55 68.4 °F /  20.2 °C 53.4 °F /  11.9 °C 30.4 in /  1028.0 hPa NNE 3 mph /  4.8 km/h 5 mph /  8.0 km/h 59 % 0 in /  0.0 mm
05:05 69.6 °F /  20.9 °C 54.7 °F /  12.6 °C 30.4 in /  1028.0 hPa NNE 1 mph /  1.6 km/h 6 mph /  9.7 km/h 59 % 0 in /  0.0 mm
05:15 70.9 °F /  21.6 °C 55.4 °F /  13.0 °C 30.4 in /  1028.0 hPa NE 2 mph /  3.2 km/h 3 mph /  4.8 km/h 58 % 0 in /  0.0 mm
05:25 71.6 °F /  22.0 °C 55 °F /  12.8 °C 30.4 in /  1028.0 hPa NE 2 mph /  3.2 km/h 4 mph /  6.4 km/h 56 % 0 in /  0.0 mm
05:35 72.3 °F /  22.4 °C 55.8 °F /  13.2 °C 30.4 in /  1028.0 hPa ENE 2 mph /  3.2 km/h 3 mph /  4.8 km/h 56 % 0 in /  0.0 mm
05:45 72.5 °F /  22.5 °C 55.4 °F /  13.0 °C 30.4 in /  1028.0 hPa ENE 1 mph /  1.6 km/h 3 mph /  4.8 km/h 55 % 0 in /  0.0 mm
10:54 73.9 °F /  23.3 °C 55.8 °F /  13.2 °C 30.4 in /  1028.0 hPa ENE 3.5 mph /  5.6 km/h 3.5 mph /  5.6 km/h 53 % 0 in /  0.0 mm
10:59 73.9 °F /  23.3 °C 55.2 °F /  12.9 °C 30.4 in /  1028.0 hPa NE 2.3 mph /  3.7 km/h 2.6 mph /  4.2 km/h 52 % 0 in /  0.0 mm
11:04 74.8 °F /  23.8 °C 55.9 °F /  13.3 °C 30.4 in /  1028.0 hPa ESE 2.4 mph /  3.9 km/h 2.4 mph /  3.9 km/h 52 % 0 in /  0.0 mm
11:09 75.2 °F /  24.0 °C 55.8 °F /  13.2 °C 30.4 in /  1028.0 hPa ESE 5.8 mph /  9.3 km/h 5.8 mph /  9.3 km/h 51 % 0 in /  0.0 mm
11:14 74.8 °F /  23.8 °C 54.9 °F /  12.7 °C 30.4 in /  1028.0 hPa ENE 5.6 mph /  9.0 km/h 5.6 mph /  9.0 km/h 50 % 0 in /  0.0 mm
11:19 75.4 °F /  24.1 °C 54.9 °F /  12.7 °C 30.4 in /  1028.0 hPa NNE 1.4 mph /  2.3 km/h   49 % 0 in /  0.0 mm
11:24 75.7 °F /  24.3 °C 55.2 °F /  12.9 °C 30.4 in /  1028.0 hPa ESE 3.5 mph /  5.6 km/h 3.5 mph /  5.6 km/h 49 % 0 in /  0.0 mm
11:29 75.7 °F /  24.3 °C 54.7 °F /  12.6 °C 30.4 in /  1028.0 hPa ENE 3.5 mph /  5.6 km/h 3.5 mph /  5.6 km/h 48 % 0 in /  0.0 mm
11:34 75.9 °F /  24.4 °C 54.9 °F /  12.7 °C 30.4 in /  1028.0 hPa ENE 6.9 mph /  11.1 km/h 6.9 mph /  11.1 km/h 48 % 0 in /  0.0 mm
11:39 75.7 °F /  24.3 °C 54.7 °F /  12.6 °C 30.4 in /  1028.0 hPa ESE 4 mph /  6.4 km/h 4 mph /  6.4 km/h 48 % 0 in /  0.0 mm
11:44 75.9 °F /  24.4 °C 54.1 °F /  12.3 °C 30.4 in /  1028.0 hPa NNE 5.8 mph /  9.3 km/h 5.8 mph /  9.3 km/h 47 % 0 in /  0.0 mm
11:49 76.5 °F /  24.7 °C 54.7 °F /  12.6 °C 30.4 in /  1028.0 hPa NNE 3.5 mph /  5.6 km/h 3.5 mph /  5.6 km/h 47 % 0 in /  0.0 mm
11:54 75.9 °F /  24.4 °C 53.6 °F /  12.0 °C 30.4 in /  1028.0 hPa East 8.1 mph /  13.0 km/h 8.1 mph /  13.0 km/h 46 % 0 in /  0.0 mm
11:59 75.9 °F /  24.4 °C 54.1 °F /  12.3 °C 30.4 in /  1028.0 hPa NNE 4.6 mph /  7.4 km/h 4.6 mph /  7.4 km/h 47 % 0 in /  0.0 mm
12:04 76.5 °F /  24.7 °C 54.7 °F /  12.6 °C 30.4 in /  1028.0 hPa East 4.6 mph /  7.4 km/h 4.6 mph /  7.4 km/h 47 % 0 in /  0.0 mm
12:09 76.8 °F /  24.9 °C 54.5 °F /  12.5 °C 30.4 in /  1029.0 hPa ENE 3.5 mph /  5.6 km/h   46 % 0 in /  0.0 mm
12:14 77 °F /  25.0 °C 54 °F /  12.2 °C 30.4 in /  1029.0 hPa SE 6 mph /  9.7 km/h 6 mph /  9.7 km/h 45 % 0 in /  0.0 mm
12:19 77 °F /  25.0 °C 54 °F /  12.2 °C 30.4 in /  1029.0 hPa ENE 2.9 mph /  4.7 km/h 2.9 mph /  4.7 km/h 45 % 0 in /  0.0 mm
12:24 77.4 °F /  25.2 °C 54.3 °F /  12.4 °C 30.4 in /  1028.0 hPa NE 3.5 mph /  5.6 km/h 3.5 mph /  5.6 km/h 45 % 0 in /  0.0 mm
12:29 78.8 °F /  26.0 °C 55.8 °F /  13.2 °C 30.4 in /  1028.0 hPa North 1.2 mph /  1.9 km/h   45 % 0 in /  0.0 mm
12:34 79 °F /  26.1 °C 55.2 °F /  12.9 °C 30.4 in /  1028.0 hPa ESE 4.9 mph /  7.9 km/h 4.9 mph /  7.9 km/h 44 % 0 in /  0.0 mm
12:35 78.8 °F /  26.0 °C 55 °F /  12.8 °C 30.4 in /  1028.0 hPa SW 4.6 mph /  7.4 km/h 4.6 mph /  7.4 km/h 44 % 0 in /  0.0 mm
12:40 78.3 °F /  25.7 °C 54 °F /  12.2 °C 30.4 in /  1028.0 hPa ESE 4.6 mph /  7.4 km/h 4.6 mph /  7.4 km/h 43 % 0 in /  0.0 mm
12:45 77.5 °F /  25.3 °C 53.2 °F /  11.8 °C 30.4 in /  1028.0 hPa NNW 4.6 mph /  7.4 km/h 4.6 mph /  7.4 km/h 43 % 0 in /  0.0 mm
12:50 78.6 °F /  25.9 °C 54.9 °F /  12.7 °C 30.4 in /  1028.0 hPa SE 3.5 mph /  5.6 km/h 3.5 mph /  5.6 km/h 44 % 0 in /  0.0 mm
12:55 78.8 °F /  26.0 °C 54.3 °F /  12.4 °C 30.4 in /  1028.0 hPa NE 5.8 mph /  9.3 km/h 5.8 mph /  9.3 km/h 43 % 0 in /  0.0 mm
13:00 78.6 °F /  25.9 °C 54.1 °F /  12.3 °C 30.4 in /  1028.0 hPa ENE 4.6 mph /  7.4 km/h 4.6 mph /  7.4 km/h 43 % 0 in /  0.0 mm
13:05 78.1 °F /  25.6 °C 53.1 °F /  11.7 °C 30.4 in /  1028.0 hPa NE 5.8 mph /  9.3 km/h 5.8 mph /  9.3 km/h 42 % 0 in /  0.0 mm
13:10 78.4 °F /  25.8 °C 53.4 °F /  11.9 °C 30.3 in /  1027.0 hPa SW 4.9 mph /  7.9 km/h 4.9 mph /  7.9 km/h 42 % 0 in /  0.0 mm
13:15 79.5 °F /  26.4 °C 54.3 °F /  12.4 °C 30.3 in /  1027.0 hPa East 1.2 mph /  1.9 km/h   42 % 0 in /  0.0 mm
13:20 79.7 °F /  26.5 °C 54.7 °F /  12.6 °C 30.3 in /  1027.0 hPa South 5.8 mph /  9.3 km/h 5.8 mph /  9.3 km/h 42 % 0 in /  0.0 mm
13:25 79 °F /  26.1 °C 54 °F /  12.2 °C 30.3 in /  1027.0 hPa ESE 6.2 mph /  10.0 km/h 6.2 mph /  10.0 km/h 42 % 0 in /  0.0 mm
13:30 79 °F /  26.1 °C 53.2 °F /  11.8 °C 30.3 in /  1027.0 hPa ESE 8.1 mph /  13.0 km/h 8.1 mph /  13.0 km/h 41 % 0 in /  0.0 mm
13:35 78.6 °F /  25.9 °C 52.3 °F /  11.3 °C 30.3 in /  1027.0 hPa SE 5.8 mph /  9.3 km/h 5.8 mph /  9.3 km/h 40 % 0 in /  0.0 mm
13:40 78.6 °F /  25.9 °C 52.3 °F /  11.3 °C 30.3 in /  1027.0 hPa SSE 8.1 mph /  13.0 km/h 8.1 mph /  13.0 km/h 40 % 0 in /  0.0 mm
13:45 79.7 °F /  26.5 °C 53.2 °F /  11.8 °C 30.3 in /  1027.0 hPa South 6.9 mph /  11.1 km/h 6.9 mph /  11.1 km/h 40 % 0 in /  0.0 mm
13:50 79 °F /  26.1 °C 53.2 °F /  11.8 °C 30.3 in /  1027.0 hPa SE 10.4 mph /  16.7 km/h 10.4 mph /  16.7 km/h 41 % 0 in /  0.0 mm
13:55 78.3 °F /  25.7 °C 52 °F /  11.1 °C 30.3 in /  1027.0 hPa East 7.6 mph /  12.2 km/h 7.6 mph /  12.2 km/h 40 % 0 in /  0.0 mm
14:00 78.6 °F /  25.9 °C 52.9 °F /  11.6 °C 30.3 in /  1027.0 hPa SE 5.9 mph /  9.5 km/h 5.9 mph /  9.5 km/h 41 % 0 in /  0.0 mm
14:05 78.3 °F /  25.7 °C 52 °F /  11.1 °C 30.3 in /  1027.0 hPa SSW 9.2 mph /  14.8 km/h 9.2 mph /  14.8 km/h 40 % 0 in /  0.0 mm
14:10 78.3 °F /  25.7 °C 52 °F /  11.1 °C 30.3 in /  1027.0 hPa ENE 11.5 mph /  18.5 km/h 11.5 mph /  18.5 km/h 40 % 0 in /  0.0 mm
14:15 79 °F /  26.1 °C 52.5 °F /  11.4 °C 30.3 in /  1027.0 hPa South 5.8 mph /  9.3 km/h 5.8 mph /  9.3 km/h 40 % 0 in /  0.0 mm
14:20 79.5 °F /  26.4 °C 53.8 °F /  12.1 °C 30.3 in /  1027.0 hPa ESE 6.2 mph /  10.0 km/h 6.2 mph /  10.0 km/h 41 % 0 in /  0.0 mm
14:25 79.2 °F /  26.2 °C 52.9 °F /  11.6 °C 30.3 in /  1027.0 hPa ENE 8.1 mph /  13.0 km/h 8.1 mph /  13.0 km/h 40 % 0 in /  0.0 mm
14:30 79.3 °F /  26.3 °C 52.9 °F /  11.6 °C 30.3 in /  1027.0 hPa SE 6.9 mph /  11.1 km/h 6.9 mph /  11.1 km/h 40 % 0 in /  0.0 mm
14:35 79.3 °F /  26.3 °C 52.9 °F /  11.6 °C 30.3 in /  1027.0 hPa ESE 13 mph /  20.9 km/h 13 mph /  20.9 km/h 40 % 0 in /  0.0 mm
14:40 79 °F /  26.1 °C 52 °F /  11.1 °C 30.3 in /  1026.0 hPa ESE 11.5 mph /  18.5 km/h 11.5 mph /  18.5 km/h 39 % 0 in /  0.0 mm
14:45 79.5 °F /  26.4 °C 53.1 °F /  11.7 °C 30.3 in /  1026.0 hPa NE 5.8 mph /  9.3 km/h 5.8 mph /  9.3 km/h 40 % 0 in /  0.0 mm
14:50 79.5 °F /  26.4 °C 52.3 °F /  11.3 °C 30.3 in /  1026.0 hPa SE 6.9 mph /  11.1 km/h 6.9 mph /  11.1 km/h 39 % 0 in /  0.0 mm
14:55 79 °F /  26.1 °C 52 °F /  11.1 °C 30.3 in /  1027.0 hPa SSW 11.5 mph /  18.5 km/h 11.5 mph /  18.5 km/h 39 % 0 in /  0.0 mm
15:00 79.7 °F /  26.5 °C 52.5 °F /  11.4 °C 30.3 in /  1027.0 hPa South 8.1 mph /  13.0 km/h 8.1 mph /  13.0 km/h 39 % 0 in /  0.0 mm
15:01 79.7 °F /  26.5 °C 51.8 °F /  11.0 °C 30.3 in /  1027.0 hPa ESE 8.1 mph /  13.0 km/h 8.1 mph /  13.0 km/h 38 % 0 in /  0.0 mm
15:06 79.3 °F /  26.3 °C 52.2 °F /  11.2 °C 30.3 in /  1027.0 hPa SSE 9.2 mph /  14.8 km/h 9.2 mph /  14.8 km/h 39 % 0 in /  0.0 mm
15:11 79.2 °F /  26.2 °C 52.2 °F /  11.2 °C 30.3 in /  1026.0 hPa SSE 9.2 mph /  14.8 km/h 9.2 mph /  14.8 km/h 39 % 0 in /  0.0 mm
15:16 78.4 °F /  25.8 °C 51.4 °F /  10.8 °C 30.3 in /  1026.0 hPa SE 11.5 mph /  18.5 km/h 11.5 mph /  18.5 km/h 39 % 0 in /  0.0 mm
15:21 78.4 °F /  25.8 °C 51.4 °F /  10.8 °C 30.3 in /  1026.0 hPa ESE 8.1 mph /  13.0 km/h 8.1 mph /  13.0 km/h 39 % 0 in /  0.0 mm
15:26 79.3 °F /  26.3 °C 51.4 °F /  10.8 °C 30.3 in /  1026.0 hPa ESE 5.8 mph /  9.3 km/h 5.8 mph /  9.3 km/h 38 % 0 in /  0.0 mm
15:31 79.2 °F /  26.2 °C 52.2 °F /  11.2 °C 30.3 in /  1026.0 hPa ESE 5.8 mph /  9.3 km/h 5.8 mph /  9.3 km/h 39 % 0 in /  0.0 mm
15:36 81 °F /  27.2 °C 53.1 °F /  11.7 °C 30.3 in /  1026.0 hPa SSW 3.5 mph /  5.6 km/h 3.5 mph /  5.6 km/h 38 % 0 in /  0.0 mm
15:41 80.8 °F /  27.1 °C 52.2 °F /  11.2 °C 30.3 in /  1026.0 hPa North 6.9 mph /  11.1 km/h 6.9 mph /  11.1 km/h 37 % 0 in /  0.0 mm
15:46 82.4 °F /  28.0 °C 54.1 °F /  12.3 °C 30.3 in /  1026.0 hPa West 10.9 mph /  17.5 km/h 10.9 mph /  17.5 km/h 38 % 0 in /  0.0 mm
15:51 82.6 °F /  28.1 °C 52.9 °F /  11.6 °C 30.3 in /  1026.0 hPa WSW 6.9 mph /  11.1 km/h 6.9 mph /  11.1 km/h 36 % 0 in /  0.0 mm
15:56 82.8 °F /  28.2 °C 53.8 °F /  12.1 °C 30.3 in /  1026.0 hPa SSE 3.3 mph /  5.3 km/h 3.3 mph /  5.3 km/h 37 % 0 in /  0.0 mm
16:01 83.3 °F /  28.5 °C 54.3 °F /  12.4 °C 30.3 in /  1026.0 hPa West 5.4 mph /  8.7 km/h 5.4 mph /  8.7 km/h 37 % 0 in /  0.0 mm
16:06 82 °F /  27.8 °C 52.3 °F /  11.3 °C 30.3 in /  1026.0 hPa SW 6.9 mph /  11.1 km/h 6.9 mph /  11.1 km/h 36 % 0 in /  0.0 mm
16:11 82 °F /  27.8 °C 52.3 °F /  11.3 °C 30.3 in /  1026.0 hPa SW 9.2 mph /  14.8 km/h 9.2 mph /  14.8 km/h 36 % 0 in /  0.0 mm
16:16 82.4 °F /  28.0 °C 52.9 °F /  11.6 °C 30.3 in /  1026.0 hPa WSW 3.5 mph /  5.6 km/h 3.5 mph /  5.6 km/h 36 % 0 in /  0.0 mm
16:21 82.6 °F /  28.1 °C 52.9 °F /  11.6 °C 30.3 in /  1026.0 hPa SW 8.1 mph /  13.0 km/h 8.1 mph /  13.0 km/h 36 % 0 in /  0.0 mm
16:26 81.7 °F /  27.6 °C 51.4 °F /  10.8 °C 30.3 in /  1026.0 hPa WSW 6.9 mph /  11.1 km/h 6.9 mph /  11.1 km/h 35 % 0 in /  0.0 mm
16:31 82.4 °F /  28.0 °C 52.9 °F /  11.6 °C 30.3 in /  1026.0 hPa NE 3.5 mph /  5.6 km/h 3.5 mph /  5.6 km/h 36 % 0 in /  0.0 mm
16:36 82.8 °F /  28.2 °C 53.1 °F /  11.7 °C 30.3 in /  1026.0 hPa South 5.8 mph /  9.3 km/h 5.8 mph /  9.3 km/h 36 % 0 in /  0.0 mm
16:41 82 °F /  27.8 °C 52.3 °F /  11.3 °C 30.3 in /  1026.0 hPa SW 8.1 mph /  13.0 km/h 8.1 mph /  13.0 km/h 36 % 0 in /  0.0 mm
16:46 81 °F /  27.2 °C 50.7 °F /  10.4 °C 30.3 in /  1026.0 hPa WSW 6.9 mph /  11.1 km/h 6.9 mph /  11.1 km/h 35 % 0 in /  0.0 mm
16:51 81.1 °F /  27.3 °C 50.9 °F /  10.5 °C 30.3 in /  1026.0 hPa South 10.4 mph /  16.7 km/h 10.4 mph /  16.7 km/h 35 % 0 in /  0.0 mm
16:56 80.8 °F /  27.1 °C 50.5 °F /  10.3 °C 30.3 in /  1026.0 hPa WSW 8.1 mph /  13.0 km/h 8.1 mph /  13.0 km/h 35 % 0 in /  0.0 mm
17:01 80.4 °F /  26.9 °C 50.4 °F /  10.2 °C 30.3 in /  1026.0 hPa SSW 9.2 mph /  14.8 km/h 9.2 mph /  14.8 km/h 35 % 0 in /  0.0 mm
17:06 81 °F /  27.2 °C 50.7 °F /  10.4 °C 30.3 in /  1026.0 hPa WNW 5.8 mph /  9.3 km/h 5.8 mph /  9.3 km/h 35 % 0 in /  0.0 mm
17:11 81.1 °F /  27.3 °C 50.9 °F /  10.5 °C 30.3 in /  1026.0 hPa SSW 6.4 mph /  10.3 km/h 6.4 mph /  10.3 km/h 35 % 0 in /  0.0 mm
17:16 80.8 °F /  27.1 °C 50.5 °F /  10.3 °C 30.3 in /  1026.0 hPa West 5.8 mph /  9.3 km/h 5.8 mph /  9.3 km/h 35 % 0 in /  0.0 mm
17:21 80.6 °F /  27.0 °C 50.4 °F /  10.2 °C 30.3 in /  1026.0 hPa West 5.4 mph /  8.7 km/h 5.4 mph /  8.7 km/h 35 % 0 in /  0.0 mm
17:26 80.8 °F /  27.1 °C 50.5 °F /  10.3 °C 30.3 in /  1026.0 hPa West 13 mph /  20.9 km/h 13 mph /  20.9 km/h 35 % 0 in /  0.0 mm
17:31 79.7 °F /  26.5 °C 50.4 °F /  10.2 °C 30.3 in /  1026.0 hPa WSW 8.1 mph /  13.0 km/h 8.1 mph /  13.0 km/h 36 % 0 in /  0.0 mm
17:36 79.9 °F /  26.6 °C 50.5 °F /  10.3 °C 30.3 in /  1026.0 hPa WSW 10.4 mph /  16.7 km/h 10.4 mph /  16.7 km/h 36 % 0 in /  0.0 mm
17:41 79.3 °F /  26.3 °C 50.2 °F /  10.1 °C 30.3 in /  1026.0 hPa South 8.1 mph /  13.0 km/h 8.1 mph /  13.0 km/h 36 % 0 in /  0.0 mm
17:46 79.7 °F /  26.5 °C 50.4 °F /  10.2 °C 30.3 in /  1026.0 hPa WSW 6.2 mph /  10.0 km/h 6.2 mph /  10.0 km/h 36 % 0 in /  0.0 mm
17:51 79.2 °F /  26.2 °C 49.8 °F /  9.9 °C 30.3 in /  1026.0 hPa SSW 8.1 mph /  13.0 km/h 8.1 mph /  13.0 km/h 36 % 0 in /  0.0 mm
17:56 79 °F /  26.1 °C 50.5 °F /  10.3 °C 30.3 in /  1026.0 hPa WSW 8.1 mph /  13.0 km/h 8.1 mph /  13.0 km/h 37 % 0 in /  0.0 mm
18:01 78.6 °F /  25.9 °C 49.5 °F /  9.7 °C 30.3 in /  1026.0 hPa SW 8.1 mph /  13.0 km/h 8.1 mph /  13.0 km/h 36 % 0 in /  0.0 mm
18:06 79 °F /  26.1 °C 50.5 °F /  10.3 °C 30.3 in /  1026.0 hPa SSE 5.8 mph /  9.3 km/h 5.8 mph /  9.3 km/h 37 % 0 in /  0.0 mm
18:11 79 °F /  26.1 °C 50.5 °F /  10.3 °C 30.3 in /  1026.0 hPa SSW 5.8 mph /  9.3 km/h 5.8 mph /  9.3 km/h 37 % 0 in /  0.0 mm
18:16 78.8 °F /  26.0 °C 50.4 °F /  10.2 °C 30.3 in /  1026.0 hPa SW 9.2 mph /  14.8 km/h 9.2 mph /  14.8 km/h 37 % 0 in /  0.0 mm
18:21 77.9 °F /  25.5 °C 49.5 °F /  9.7 °C 30.3 in /  1026.0 hPa SW 8.1 mph /  13.0 km/h 8.1 mph /  13.0 km/h 37 % 0 in /  0.0 mm
18:26 78.1 °F /  25.6 °C 49.6 °F /  9.8 °C 30.3 in /  1026.0 hPa SW 8.1 mph /  13.0 km/h 8.1 mph /  13.0 km/h 37 % 0 in /  0.0 mm
18:27 78.1 °F /  25.6 °C 49.6 °F /  9.8 °C 30.3 in /  1026.0 hPa SW 8.1 mph /  13.0 km/h 8.1 mph /  13.0 km/h 37 % 0 in /  0.0 mm
18:32 78.1 °F /  25.6 °C 50.4 °F /  10.2 °C 30.3 in /  1026.0 hPa SSW 6.9 mph /  11.1 km/h 6.9 mph /  11.1 km/h 38 % 0 in /  0.0 mm
18:37 78.8 °F /  26.0 °C 51.1 °F /  10.6 °C 30.3 in /  1026.0 hPa SSW 5.8 mph /  9.3 km/h 5.8 mph /  9.3 km/h 38 % 0 in /  0.0 mm
18:42 78.1 °F /  25.6 °C 50.4 °F /  10.2 °C 30.3 in /  1026.0 hPa WSW 6.9 mph /  11.1 km/h 6.9 mph /  11.1 km/h 38 % 0 in /  0.0 mm
18:47 77.4 °F /  25.2 °C 49.8 °F /  9.9 °C 30.3 in /  1026.0 hPa SW 6.9 mph /  11.1 km/h 6.9 mph /  11.1 km/h 38 % 0 in /  0.0 mm
18:52 77.4 °F /  25.2 °C 49.8 °F /  9.9 °C 30.3 in /  1026.0 hPa SSW 7.6 mph /  12.2 km/h 7.6 mph /  12.2 km/h 38 % 0 in /  0.0 mm
18:57 77 °F /  25.0 °C 49.5 °F /  9.7 °C 30.3 in /  1026.0 hPa SW 5.9 mph /  9.5 km/h 5.9 mph /  9.5 km/h 38 % 0 in /  0.0 mm
19:02 76.6 °F /  24.8 °C 49.8 °F /  9.9 °C 30.3 in /  1026.0 hPa SW 5.8 mph /  9.3 km/h 5.8 mph /  9.3 km/h 39 % 0 in /  0.0 mm
19:07 76.5 °F /  24.7 °C 49.6 °F /  9.8 °C 30.3 in /  1026.0 hPa WSW 5.8 mph /  9.3 km/h 5.8 mph /  9.3 km/h 39 % 0 in /  0.0 mm
19:12 76.8 °F /  24.9 °C 50 °F /  10.0 °C 30.3 in /  1024.9 hPa SW 7.1 mph /  11.4 km/h 7.1 mph /  11.4 km/h 39 % 0 in /  0.0 mm
19:17 76.3 °F /  24.6 °C 49.5 °F /  9.7 °C 30.3 in /  1024.9 hPa SW 4.6 mph /  7.4 km/h 4.6 mph /  7.4 km/h 39 % 0 in /  0.0 mm
19:22 75.9 °F /  24.4 °C 49.8 °F /  9.9 °C 30.3 in /  1024.9 hPa WSW 2.3 mph /  3.7 km/h 2.4 mph /  3.9 km/h 40 % 0 in /  0.0 mm
19:25 64.8 °F /  18.2 °C 50.5 °F /  10.3 °C 30.3 in /  1027.0 hPa Calm   2 mph /  3.2 km/h 60 % 0 in /  0.0 mm
19:27 75.6 °F /  24.2 °C 49.5 °F /  9.7 °C 30.3 in /  1024.9 hPa SSW 5.8 mph /  9.3 km/h 5.8 mph /  9.3 km/h 40 % 0 in /  0.0 mm
19:32 75.6 °F /  24.2 °C 49.5 °F /  9.7 °C 30.3 in /  1024.9 hPa WSW 1.2 mph /  1.9 km/h 1.2 mph /  1.9 km/h 40 % 0 in /  0.0 mm
19:35 64.2 °F /  17.9 °C 50.5 °F /  10.3 °C 30.3 in /  1027.0 hPa Calm     61 % 0 in /  0.0 mm
19:37 75.2 °F /  24.0 °C 49.3 °F /  9.6 °C 30.3 in /  1024.9 hPa SSE 3.5 mph /  5.6 km/h 3.5 mph /  5.6 km/h 40 % 0 in /  0.0 mm
19:42 75 °F /  23.9 °C 49.1 °F /  9.5 °C 30.3 in /  1024.9 hPa SW 2.6 mph /  4.2 km/h 2.6 mph /  4.2 km/h 40 % 0 in /  0.0 mm
19:45 64 °F /  17.8 °C 50.4 °F /  10.2 °C 30.3 in /  1027.0 hPa Calm     61 % 0 in /  0.0 mm
19:47 74.7 °F /  23.7 °C 49.5 °F /  9.7 °C 30.3 in /  1024.9 hPa SW 2.3 mph /  3.7 km/h   41 % 0 in /  0.0 mm
19:52 74.5 °F /  23.6 °C 49.3 °F /  9.6 °C 30.3 in /  1024.9 hPa West 2.3 mph /  3.7 km/h 2.3 mph /  3.7 km/h 41 % 0 in /  0.0 mm
19:55 63.7 °F /  17.6 °C 50 °F /  10.0 °C 30.3 in /  1027.0 hPa Calm   1 mph /  1.6 km/h 61 % 0 in /  0.0 mm
19:57 74.3 °F /  23.5 °C 49.1 °F /  9.5 °C 30.3 in /  1024.9 hPa SW 2.3 mph /  3.7 km/h 2.3 mph /  3.7 km/h 41 % 0 in /  0.0 mm
19:58 74.3 °F /  23.5 °C 49.1 °F /  9.5 °C 30.3 in /  1024.9 hPa SSW 2.3 mph /  3.7 km/h 2.3 mph /  3.7 km/h 41 % 0 in /  0.0 mm
20:03 73.9 °F /  23.3 °C 48.7 °F /  9.3 °C 30.3 in /  1024.9 hPa SW 2.3 mph /  3.7 km/h 2.4 mph /  3.9 km/h 41 % 0 in /  0.0 mm
20:05 63.7 °F /  17.6 °C 50.4 °F /  10.2 °C 30.3 in /  1027.0 hPa Calm   1 mph /  1.6 km/h 62 % 0 in /  0.0 mm
20:08 73.9 °F /  23.3 °C 48.7 °F /  9.3 °C 30.3 in /  1024.9 hPa WSW 3.3 mph /  5.3 km/h 3.3 mph /  5.3 km/h 41 % 0 in /  0.0 mm
20:13 73.8 °F /  23.2 °C 48.6 °F /  9.2 °C 30.3 in /  1024.9 hPa SW 3.3 mph /  5.3 km/h 3.3 mph /  5.3 km/h 41 % 0 in /  0.0 mm
20:15 63.3 °F /  17.4 °C 50.2 °F /  10.1 °C 30.3 in /  1027.0 hPa Calm     62 % 0 in /  0.0 mm
20:18 73.4 °F /  23.0 °C 48.4 °F /  9.1 °C 30.3 in /  1024.9 hPa SW 3.5 mph /  5.6 km/h 3.5 mph /  5.6 km/h 41 % 0 in /  0.0 mm
20:23 73 °F /  22.8 °C 49.3 °F /  9.6 °C 30.3 in /  1024.9 hPa SSW 2.3 mph /  3.7 km/h 2.3 mph /  3.7 km/h 43 % 0 in /  0.0 mm
20:25 63.1 °F /  17.3 °C 50.4 °F /  10.2 °C 30.3 in /  1027.0 hPa Calm   1 mph /  1.6 km/h 63 % 0 in /  0.0 mm
20:28 72.9 °F /  22.7 °C 49.1 °F /  9.5 °C 30.3 in /  1024.9 hPa WSW 1.2 mph /  1.9 km/h   43 % 0 in /  0.0 mm
20:33 72.7 °F /  22.6 °C 48.9 °F /  9.4 °C 30.3 in /  1024.9 hPa WSW 1.4 mph /  2.3 km/h   43 % 0 in /  0.0 mm
20:35 63 °F /  17.2 °C 50.2 °F /  10.1 °C 30.3 in /  1027.0 hPa NNE 1 mph /  1.6 km/h 2 mph /  3.2 km/h 63 % 0 in /  0.0 mm
20:38 72.3 °F /  22.4 °C 48.6 °F /  9.2 °C 30.3 in /  1024.9 hPa SW 1.2 mph /  1.9 km/h 1.2 mph /  1.9 km/h 43 % 0 in /  0.0 mm
20:43 72.1 °F /  22.3 °C 48.9 °F /  9.4 °C 30.3 in /  1026.0 hPa SW 1.2 mph /  1.9 km/h   44 % 0 in /  0.0 mm
20:45 62.8 °F /  17.1 °C 50 °F /  10.0 °C 30.3 in /  1026.0 hPa Calm   1 mph /  1.6 km/h 63 % 0 in /  0.0 mm
20:48 71.6 °F /  22.0 °C 48.6 °F /  9.2 °C 30.3 in /  1026.0 hPa Calm     44 % 0 in /  0.0 mm
20:53 71.4 °F /  21.9 °C 48.4 °F /  9.1 °C 30.3 in /  1026.0 hPa SW 1.2 mph /  1.9 km/h   44 % 0 in /  0.0 mm
20:55 62.8 °F /  17.1 °C 50.4 °F /  10.2 °C 30.3 in /  1026.0 hPa East 1 mph /  1.6 km/h 2 mph /  3.2 km/h 64 % 0 in /  0.0 mm
20:58 71.1 °F /  21.7 °C 48.6 °F /  9.2 °C 30.3 in /  1026.0 hPa SW 1.2 mph /  1.9 km/h   45 % 0 in /  0.0 mm
21:03 70.7 °F /  21.5 °C 48.4 °F /  9.1 °C 30.3 in /  1026.0 hPa SW 1.2 mph /  1.9 km/h 1.4 mph /  2.3 km/h 45 % 0 in /  0.0 mm
21:05 62.6 °F /  17.0 °C 50.2 °F /  10.1 °C 30.3 in /  1026.0 hPa ENE 1 mph /  1.6 km/h 2 mph /  3.2 km/h 64 % 0 in /  0.0 mm
21:08 70.5 °F /  21.4 °C 48.7 °F /  9.3 °C 30.3 in /  1026.0 hPa SW 1.2 mph /  1.9 km/h   46 % 0 in /  0.0 mm
21:13 70.2 °F /  21.2 °C 48.4 °F /  9.1 °C 30.3 in /  1026.0 hPa WSW 2.3 mph /  3.7 km/h 2.3 mph /  3.7 km/h 46 % 0 in /  0.0 mm
21:15 62.4 °F /  16.9 °C 50.5 °F /  10.3 °C 30.3 in /  1026.0 hPa Calm   1 mph /  1.6 km/h 65 % 0 in /  0.0 mm
21:18 69.8 °F /  21.0 °C 48.7 °F /  9.3 °C 30.3 in /  1026.0 hPa East 1.6 mph /  2.6 km/h   47 % 0 in /  0.0 mm
21:23 69.8 °F /  21.0 °C 48.7 °F /  9.3 °C 30.3 in /  1026.0 hPa ENE 1.2 mph /  1.9 km/h 1.2 mph /  1.9 km/h 47 % 0 in /  0.0 mm
21:25 62.1 °F /  16.7 °C 50.2 °F /  10.1 °C 30.3 in /  1024.9 hPa Calm     65 % 0 in /  0.0 mm
21:28 69.6 °F /  20.9 °C 49.6 °F /  9.8 °C 30.3 in /  1026.0 hPa Calm     49 % 0 in /  0.0 mm
21:33 69.3 °F /  20.7 °C 49.3 °F /  9.6 °C 30.3 in /  1026.0 hPa NE 1.2 mph /  1.9 km/h 1.2 mph /  1.9 km/h 49 % 0 in /  0.0 mm
21:35 61.9 °F /  16.6 °C 50.4 °F /  10.2 °C 30.3 in /  1024.9 hPa Calm     66 % 0 in /  0.0 mm
21:38 69.3 °F /  20.7 °C 49.8 °F /  9.9 °C 30.3 in /  1026.0 hPa NE 1.6 mph /  2.6 km/h 1.6 mph /  2.6 km/h 50 % 0 in /  0.0 mm
21:43 68.9 °F /  20.5 °C 49.5 °F /  9.7 °C 30.3 in /  1026.0 hPa NE 2.3 mph /  3.7 km/h 2.3 mph /  3.7 km/h 50 % 0 in /  0.0 mm
21:45 61.2 °F /  16.2 °C 49.3 °F /  9.6 °C 30.3 in /  1026.0 hPa ENE 2 mph /  3.2 km/h 3 mph /  4.8 km/h 65 % 0 in /  0.0 mm
21:48 68.7 °F /  20.4 °C 49.3 °F /  9.6 °C 30.3 in /  1026.0 hPa ENE 2.3 mph /  3.7 km/h 2.3 mph /  3.7 km/h 50 % 0 in /  0.0 mm
21:53 68.5 °F /  20.3 °C 49.6 °F /  9.8 °C 30.3 in /  1024.9 hPa ENE 1.6 mph /  2.6 km/h 1.6 mph /  2.6 km/h 51 % 0 in /  0.0 mm
21:55 60.6 °F /  15.9 °C 49.6 °F /  9.8 °C 30.3 in /  1026.0 hPa Calm   3 mph /  4.8 km/h 67 % 0 in /  0.0 mm
21:58 68.4 °F /  20.2 °C 49.5 °F /  9.7 °C 30.3 in /  1024.9 hPa NE 1.2 mph /  1.9 km/h 1.2 mph /  1.9 km/h 51 % 0 in /  0.0 mm
22:03 68.2 °F /  20.1 °C 49.5 °F /  9.7 °C 30.3 in /  1024.9 hPa NNE 2.3 mph /  3.7 km/h 2.3 mph /  3.7 km/h 51 % 0 in /  0.0 mm
22:05 60.4 °F /  15.8 °C 49.5 °F /  9.7 °C 30.3 in /  1026.0 hPa SW 1 mph /  1.6 km/h 2 mph /  3.2 km/h 67 % 0 in /  0.0 mm
22:08 68 °F /  20.0 °C 49.6 °F /  9.8 °C 30.3 in /  1026.0 hPa ENE 2.3 mph /  3.7 km/h 2.3 mph /  3.7 km/h 52 % 0 in /  0.0 mm
22:13 67.6 °F /  19.8 °C 49.8 °F /  9.9 °C 30.3 in /  1026.0 hPa ENE 2.3 mph /  3.7 km/h 2.3 mph /  3.7 km/h 53 % 0 in /  0.0 mm
22:15 60.1 °F /  15.6 °C 49.1 °F /  9.5 °C 30.3 in /  1026.0 hPa SW 2 mph /  3.2 km/h 2 mph /  3.2 km/h 67 % 0 in /  0.0 mm
22:18 67.6 °F /  19.8 °C 49.8 °F /  9.9 °C 30.3 in /  1026.0 hPa NE 1.2 mph /  1.9 km/h 1.2 mph /  1.9 km/h 53 % 0 in /  0.0 mm
22:23 67.5 °F /  19.7 °C 49.6 °F /  9.8 °C 30.3 in /  1026.0 hPa North 2.3 mph /  3.7 km/h 2.3 mph /  3.7 km/h 53 % 0 in /  0.0 mm
22:25 59.2 °F /  15.1 °C 48.2 °F /  9.0 °C 30.3 in /  1026.0 hPa SW 2 mph /  3.2 km/h 3 mph /  4.8 km/h 67 % 0 in /  0.0 mm
22:28 67.3 °F /  19.6 °C 50.2 °F /  10.1 °C 30.3 in /  1026.0 hPa NNE 2.3 mph /  3.7 km/h 2.3 mph /  3.7 km/h 54 % 0 in /  0.0 mm
22:33 67.1 °F /  19.5 °C 49.8 °F /  9.9 °C 30.3 in /  1026.0 hPa Calm     54 % 0 in /  0.0 mm
22:35 59.5 °F /  15.3 °C 49.5 °F /  9.7 °C 30.3 in /  1026.0 hPa Calm   3 mph /  4.8 km/h 69 % 0 in /  0.0 mm
22:38 66.9 °F /  19.4 °C 50.2 °F /  10.1 °C 30.3 in /  1027.0 hPa Calm     55 % 0 in /  0.0 mm
22:43 66.7 °F /  19.3 °C 50.2 °F /  10.1 °C 30.3 in /  1027.0 hPa Calm     55 % 0 in /  0.0 mm
22:45 59.7 °F /  15.4 °C 49.5 °F /  9.7 °C 30.3 in /  1026.0 hPa Calm   2 mph /  3.2 km/h 69 % 0 in /  0.0 mm
22:48 66.7 °F /  19.3 °C 50.2 °F /  10.1 °C 30.3 in /  1027.0 hPa Calm     55 % 0 in /  0.0 mm
22:53 66.7 °F /  19.3 °C 50.5 °F /  10.3 °C 30.3 in /  1027.0 hPa NNE 2.3 mph /  3.7 km/h 2.3 mph /  3.7 km/h 56 % 0 in /  0.0 mm
22:55 60.3 °F /  15.7 °C 50.4 °F /  10.2 °C 30.3 in /  1026.0 hPa WSW 1 mph /  1.6 km/h 1 mph /  1.6 km/h 70 % 0 in /  0.0 mm
22:58 66.6 °F /  19.2 °C 50.4 °F /  10.2 °C 30.3 in /  1027.0 hPa NNW 1.2 mph /  1.9 km/h   56 % 0 in /  0.0 mm
23:03 66.4 °F /  19.1 °C 50.7 °F /  10.4 °C 30.3 in /  1027.0 hPa Calm     57 % 0 in /  0.0 mm
23:05 60.3 °F /  15.7 °C 50 °F /  10.0 °C 30.3 in /  1026.0 hPa Calm   1 mph /  1.6 km/h 69 % 0 in /  0.0 mm
23:08 66.2 °F /  19.0 °C 50.5 °F /  10.3 °C 30.3 in /  1027.0 hPa Calm     57 % 0 in /  0.0 mm
23:13 66 °F /  18.9 °C 50.7 °F /  10.4 °C 30.3 in /  1027.0 hPa Calm     58 % 0 in /  0.0 mm
23:15 60.1 °F /  15.6 °C 49.8 °F /  9.9 °C 30.3 in /  1026.0 hPa North 1 mph /  1.6 km/h 2 mph /  3.2 km/h 69 % 0 in /  0.0 mm
23:18 65.8 °F /  18.8 °C 50.5 °F /  10.3 °C 30.3 in /  1027.0 hPa Calm     58 % 0 in /  0.0 mm
23:23 65.8 °F /  18.8 °C 51.1 °F /  10.6 °C 30.3 in /  1027.0 hPa Calm     59 % 0 in /  0.0 mm
23:25 59.7 °F /  15.4 °C 49.8 °F /  9.9 °C 30.3 in /  1026.0 hPa Calm   1 mph /  1.6 km/h 70 % 0 in /  0.0 mm
23:28 65.7 °F /  18.7 °C 50.9 °F /  10.5 °C 30.3 in /  1027.0 hPa Calm     59 % 0 in /  0.0 mm
23:33 65.7 °F /  18.7 °C 50.9 °F /  10.5 °C 30.3 in /  1027.0 hPa Calm     59 % 0 in /  0.0 mm
23:35 59.5 °F /  15.3 °C 49.5 °F /  9.7 °C 30.3 in /  1026.0 hPa SW 1 mph /  1.6 km/h 2 mph /  3.2 km/h 69 % 0 in /  0.0 mm
23:38 65.5 °F /  18.6 °C 50.7 °F /  10.4 °C 30.3 in /  1027.0 hPa Calm     59 % 0 in /  0.0 mm
23:43 65.5 °F /  18.6 °C 50.7 °F /  10.4 °C 30.3 in /  1027.0 hPa Calm     59 % 0 in /  0.0 mm
23:45 59.7 °F /  15.4 °C 49.5 °F /  9.7 °C 30.3 in /  1026.0 hPa Calm   2 mph /  3.2 km/h 69 % 0 in /  0.0 mm
23:48 65.5 °F /  18.6 °C 50.7 °F /  10.4 °C 30.3 in /  1027.0 hPa Calm     59 % 0 in /  0.0 mm
23:53 65.5 °F /  18.6 °C 50.7 °F /  10.4 °C 30.3 in /  1026.0 hPa NNW 1.2 mph /  1.9 km/h   59 % 0 in /  0.0 mm
23:55 60.1 °F /  15.6 °C 49.8 °F /  9.9 °C 30.3 in /  1026.0 hPa Calm   2 mph /  3.2 km/h 69 % 0 in /  0.0 mm
23:58 65.3 °F /  18.5 °C 51.1 °F /  10.6 °C 30.3 in /  1026.0 hPa Calm     60 % 0 in /  0.0 mm
Meteo Sesrovires
Elogis d' Weather Underground - 3.75 mb

Guio original per  Jim McMurry - jmcmurry@mwt.net Adaptat per a la plantilla per  Wim van der Kuil - Leuven-Template.eu

Trobareu la nostra informacio del temps tambe a:

Weather Underground

AWEKAS